sensor_id;sensor_type;location;lat;lon;timestamp;temperature;humidity
80216;DHT22;69532;37.974;23.708;2023-04-24T00:00:10;20.60;41.20
80216;DHT22;69532;37.974;23.708;2023-04-24T00:02:38;20.60;41.10
80216;DHT22;69532;37.974;23.708;2023-04-24T00:05:06;20.60;41.20
80216;DHT22;69532;37.974;23.708;2023-04-24T00:07:32;20.50;41.40
80216;DHT22;69532;37.974;23.708;2023-04-24T00:09:57;20.40;41.60
80216;DHT22;69532;37.974;23.708;2023-04-24T00:12:24;20.40;41.80
80216;DHT22;69532;37.974;23.708;2023-04-24T00:14:51;20.40;41.80
80216;DHT22;69532;37.974;23.708;2023-04-24T00:17:17;20.40;41.90
80216;DHT22;69532;37.974;23.708;2023-04-24T00:19:46;20.30;41.90
80216;DHT22;69532;37.974;23.708;2023-04-24T00:22:12;20.30;42.00
80216;DHT22;69532;37.974;23.708;2023-04-24T00:24:41;20.20;42.20
80216;DHT22;69532;37.974;23.708;2023-04-24T00:27:07;20.20;42.50
80216;DHT22;69532;37.974;23.708;2023-04-24T00:29:32;20.10;42.50
80216;DHT22;69532;37.974;23.708;2023-04-24T00:31:58;20.10;42.60
80216;DHT22;69532;37.974;23.708;2023-04-24T00:34:24;20.10;42.60
80216;DHT22;69532;37.974;23.708;2023-04-24T00:36:50;20.10;42.70
80216;DHT22;69532;37.974;23.708;2023-04-24T00:39:19;20.10;42.70
80216;DHT22;69532;37.974;23.708;2023-04-24T00:41:45;20.10;42.60
80216;DHT22;69532;37.974;23.708;2023-04-24T00:44:11;20.20;42.40
80216;DHT22;69532;37.974;23.708;2023-04-24T00:46:37;20.20;42.50
80216;DHT22;69532;37.974;23.708;2023-04-24T00:49:04;20.10;42.60
80216;DHT22;69532;37.974;23.708;2023-04-24T00:51:31;20.10;42.70
80216;DHT22;69532;37.974;23.708;2023-04-24T00:53:58;20.10;42.50
80216;DHT22;69532;37.974;23.708;2023-04-24T00:56:25;20.20;42.50
80216;DHT22;69532;37.974;23.708;2023-04-24T00:58:51;20.10;42.60
80216;DHT22;69532;37.974;23.708;2023-04-24T01:01:17;20.10;42.80
80216;DHT22;69532;37.974;23.708;2023-04-24T01:03:46;20.00;42.90
80216;DHT22;69532;37.974;23.708;2023-04-24T01:06:12;19.90;43.10
80216;DHT22;69532;37.974;23.708;2023-04-24T01:08:39;20.00;43.20
80216;DHT22;69532;37.974;23.708;2023-04-24T01:11:06;20.00;42.90
80216;DHT22;69532;37.974;23.708;2023-04-24T01:13:34;20.10;42.90
80216;DHT22;69532;37.974;23.708;2023-04-24T01:16:00;20.10;42.70
80216;DHT22;69532;37.974;23.708;2023-04-24T01:18:26;20.10;42.80
80216;DHT22;69532;37.974;23.708;2023-04-24T01:21:04;20.10;42.90
80216;DHT22;69532;37.974;23.708;2023-04-24T01:23:30;20.10;42.80
80216;DHT22;69532;37.974;23.708;2023-04-24T01:25:55;20.10;42.80
80216;DHT22;69532;37.974;23.708;2023-04-24T01:28:22;20.10;42.60
80216;DHT22;69532;37.974;23.708;2023-04-24T01:30:48;20.20;42.60
80216;DHT22;69532;37.974;23.708;2023-04-24T01:33:13;20.20;42.60
80216;DHT22;69532;37.974;23.708;2023-04-24T01:35:40;20.20;42.50
80216;DHT22;69532;37.974;23.708;2023-04-24T01:38:05;20.20;42.60
80216;DHT22;69532;37.974;23.708;2023-04-24T01:40:32;20.20;42.50
80216;DHT22;69532;37.974;23.708;2023-04-24T01:42:58;20.20;42.50
80216;DHT22;69532;37.974;23.708;2023-04-24T01:45:24;20.30;42.60
80216;DHT22;69532;37.974;23.708;2023-04-24T01:47:50;20.10;42.60
80216;DHT22;69532;37.974;23.708;2023-04-24T01:50:17;20.10;42.80
80216;DHT22;69532;37.974;23.708;2023-04-24T01:52:43;20.10;43.10
80216;DHT22;69532;37.974;23.708;2023-04-24T01:55:09;20.00;43.30
80216;DHT22;69532;37.974;23.708;2023-04-24T01:57:35;19.90;43.40
80216;DHT22;69532;37.974;23.708;2023-04-24T02:00:01;19.90;43.50
80216;DHT22;69532;37.974;23.708;2023-04-24T02:02:29;19.80;43.60
80216;DHT22;69532;37.974;23.708;2023-04-24T02:04:56;19.80;43.80
80216;DHT22;69532;37.974;23.708;2023-04-24T02:07:22;19.80;43.70
80216;DHT22;69532;37.974;23.708;2023-04-24T02:09:47;19.80;43.60
80216;DHT22;69532;37.974;23.708;2023-04-24T02:12:16;19.90;43.50
80216;DHT22;69532;37.974;23.708;2023-04-24T02:14:45;19.90;43.50
80216;DHT22;69532;37.974;23.708;2023-04-24T02:17:11;19.90;43.40
80216;DHT22;69532;37.974;23.708;2023-04-24T02:19:38;19.90;43.40
80216;DHT22;69532;37.974;23.708;2023-04-24T02:22:04;19.90;43.50
80216;DHT22;69532;37.974;23.708;2023-04-24T02:24:30;19.80;43.60
80216;DHT22;69532;37.974;23.708;2023-04-24T02:26:56;19.80;43.60
80216;DHT22;69532;37.974;23.708;2023-04-24T02:29:21;19.80;43.70
80216;DHT22;69532;37.974;23.708;2023-04-24T02:31:48;19.80;43.70
80216;DHT22;69532;37.974;23.708;2023-04-24T02:34:13;19.80;43.80
80216;DHT22;69532;37.974;23.708;2023-04-24T02:36:39;19.80;43.70
80216;DHT22;69532;37.974;23.708;2023-04-24T02:39:05;19.90;43.60
80216;DHT22;69532;37.974;23.708;2023-04-24T02:41:31;19.90;43.60
80216;DHT22;69532;37.974;23.708;2023-04-24T02:43:58;19.90;43.60
80216;DHT22;69532;37.974;23.708;2023-04-24T02:46:25;19.80;43.70
80216;DHT22;69532;37.974;23.708;2023-04-24T02:48:50;19.80;43.80
80216;DHT22;69532;37.974;23.708;2023-04-24T02:51:16;19.80;43.90
80216;DHT22;69532;37.974;23.708;2023-04-24T02:53:42;19.80;43.90
80216;DHT22;69532;37.974;23.708;2023-04-24T02:56:08;19.80;43.90
80216;DHT22;69532;37.974;23.708;2023-04-24T02:58:33;19.80;44.00
80216;DHT22;69532;37.974;23.708;2023-04-24T03:00:59;19.80;44.00
80216;DHT22;69532;37.974;23.708;2023-04-24T03:03:25;19.80;44.00
80216;DHT22;69532;37.974;23.708;2023-04-24T03:05:51;19.80;44.00
80216;DHT22;69532;37.974;23.708;2023-04-24T03:08:17;19.80;44.00
80216;DHT22;69532;37.974;23.708;2023-04-24T03:10:43;19.80;44.00
80216;DHT22;69532;37.974;23.708;2023-04-24T03:13:09;19.80;44.00
80216;DHT22;69532;37.974;23.708;2023-04-24T03:15:35;19.80;44.00
80216;DHT22;69532;37.974;23.708;2023-04-24T03:18:00;19.80;44.10
80216;DHT22;69532;37.974;23.708;2023-04-24T03:20:28;19.80;44.20
80216;DHT22;69532;37.974;23.708;2023-04-24T03:22:53;19.80;44.30
80216;DHT22;69532;37.974;23.708;2023-04-24T03:25:19;19.80;44.20
80216;DHT22;69532;37.974;23.708;2023-04-24T03:27:45;19.80;44.00
80216;DHT22;69532;37.974;23.708;2023-04-24T03:30:11;19.80;43.90
80216;DHT22;69532;37.974;23.708;2023-04-24T03:32:37;19.80;44.00
80216;DHT22;69532;37.974;23.708;2023-04-24T03:35:05;19.90;44.10
80216;DHT22;69532;37.974;23.708;2023-04-24T03:37:32;19.90;44.40
80216;DHT22;69532;37.974;23.708;2023-04-24T03:39:58;19.90;44.40
80216;DHT22;69532;37.974;23.708;2023-04-24T03:42:23;19.90;44.90
80216;DHT22;69532;37.974;23.708;2023-04-24T03:44:49;19.90;44.80
80216;DHT22;69532;37.974;23.708;2023-04-24T03:47:15;19.90;44.60
80216;DHT22;69532;37.974;23.708;2023-04-24T03:49:41;20.00;44.40
80216;DHT22;69532;37.974;23.708;2023-04-24T03:52:06;20.00;44.30
80216;DHT22;69532;37.974;23.708;2023-04-24T03:54:32;20.00;44.40
80216;DHT22;69532;37.974;23.708;2023-04-24T03:56:58;20.00;44.40
80216;DHT22;69532;37.974;23.708;2023-04-24T03:59:24;20.00;44.50
80216;DHT22;69532;37.974;23.708;2023-04-24T04:01:49;19.90;44.50
80216;DHT22;69532;37.974;23.708;2023-04-24T04:04:15;20.00;44.60
80216;DHT22;69532;37.974;23.708;2023-04-24T04:06:41;20.00;44.60
80216;DHT22;69532;37.974;23.708;2023-04-24T04:09:07;20.00;44.70
80216;DHT22;69532;37.974;23.708;2023-04-24T04:11:34;20.00;44.80
80216;DHT22;69532;37.974;23.708;2023-04-24T04:14:01;20.00;44.70
80216;DHT22;69532;37.974;23.708;2023-04-24T04:16:27;20.10;44.80
80216;DHT22;69532;37.974;23.708;2023-04-24T04:18:52;20.20;44.90
80216;DHT22;69532;37.974;23.708;2023-04-24T04:21:18;20.30;44.90
80216;DHT22;69532;37.974;23.708;2023-04-24T04:23:43;20.40;45.20
80216;DHT22;69532;37.974;23.708;2023-04-24T04:26:10;20.50;45.00
80216;DHT22;69532;37.974;23.708;2023-04-24T04:28:36;20.40;44.90
80216;DHT22;69532;37.974;23.708;2023-04-24T04:31:03;20.50;44.60
80216;DHT22;69532;37.974;23.708;2023-04-24T04:33:29;20.60;44.40
80216;DHT22;69532;37.974;23.708;2023-04-24T04:35:54;20.60;44.00
80216;DHT22;69532;37.974;23.708;2023-04-24T04:38:22;20.70;43.80
80216;DHT22;69532;37.974;23.708;2023-04-24T04:40:48;20.80;43.50
80216;DHT22;69532;37.974;23.708;2023-04-24T04:43:14;20.90;43.30
80216;DHT22;69532;37.974;23.708;2023-04-24T04:45:43;20.90;43.10
80216;DHT22;69532;37.974;23.708;2023-04-24T04:48:10;21.00;43.00
80216;DHT22;69532;37.974;23.708;2023-04-24T04:50:38;20.90;43.00
80216;DHT22;69532;37.974;23.708;2023-04-24T04:53:04;21.00;42.90
80216;DHT22;69532;37.974;23.708;2023-04-24T04:55:30;21.00;43.00
80216;DHT22;69532;37.974;23.708;2023-04-24T04:57:56;21.20;42.80
80216;DHT22;69532;37.974;23.708;2023-04-24T05:00:22;21.30;42.40
80216;DHT22;69532;37.974;23.708;2023-04-24T05:02:51;21.40;42.20
80216;DHT22;69532;37.974;23.708;2023-04-24T05:05:17;21.50;41.60
80216;DHT22;69532;37.974;23.708;2023-04-24T05:07:43;21.60;41.30
80216;DHT22;69532;37.974;23.708;2023-04-24T05:10:10;21.80;40.80
80216;DHT22;69532;37.974;23.708;2023-04-24T05:12:36;21.90;40.80
80216;DHT22;69532;37.974;23.708;2023-04-24T05:15:02;22.10;40.20
80216;DHT22;69532;37.974;23.708;2023-04-24T05:17:28;22.20;39.80
80216;DHT22;69532;37.974;23.708;2023-04-24T05:19:54;22.40;39.60
80216;DHT22;69532;37.974;23.708;2023-04-24T05:22:20;22.50;39.00
80216;DHT22;69532;37.974;23.708;2023-04-24T05:24:46;22.60;39.00
80216;DHT22;69532;37.974;23.708;2023-04-24T05:27:12;22.80;38.50
80216;DHT22;69532;37.974;23.708;2023-04-24T05:29:38;22.90;38.00
80216;DHT22;69532;37.974;23.708;2023-04-24T05:32:04;23.00;37.60
80216;DHT22;69532;37.974;23.708;2023-04-24T05:34:30;23.20;37.30
80216;DHT22;69532;37.974;23.708;2023-04-24T05:36:55;23.30;37.10
80216;DHT22;69532;37.974;23.708;2023-04-24T05:39:21;23.40;37.00
80216;DHT22;69532;37.974;23.708;2023-04-24T05:41:47;23.50;36.90
80216;DHT22;69532;37.974;23.708;2023-04-24T05:44:13;23.60;36.40
80216;DHT22;69532;37.974;23.708;2023-04-24T05:46:38;23.70;36.20
80216;DHT22;69532;37.974;23.708;2023-04-24T05:49:04;23.80;36.00
80216;DHT22;69532;37.974;23.708;2023-04-24T05:51:30;23.80;35.80
80216;DHT22;69532;37.974;23.708;2023-04-24T05:53:57;23.90;35.60
80216;DHT22;69532;37.974;23.708;2023-04-24T05:56:23;24.00;35.40
80216;DHT22;69532;37.974;23.708;2023-04-24T05:58:48;24.10;35.30
80216;DHT22;69532;37.974;23.708;2023-04-24T06:01:14;24.10;35.00
80216;DHT22;69532;37.974;23.708;2023-04-24T06:03:41;24.20;34.90
80216;DHT22;69532;37.974;23.708;2023-04-24T06:06:07;24.20;34.60
80216;DHT22;69532;37.974;23.708;2023-04-24T06:08:33;24.30;34.60
80216;DHT22;69532;37.974;23.708;2023-04-24T06:10:59;24.30;34.40
80216;DHT22;69532;37.974;23.708;2023-04-24T06:13:25;24.40;34.20
80216;DHT22;69532;37.974;23.708;2023-04-24T06:15:54;24.40;34.20
80216;DHT22;69532;37.974;23.708;2023-04-24T06:18:20;24.50;34.20
80216;DHT22;69532;37.974;23.708;2023-04-24T06:20:46;24.50;34.20
80216;DHT22;69532;37.974;23.708;2023-04-24T06:23:12;24.60;34.10
80216;DHT22;69532;37.974;23.708;2023-04-24T06:25:38;24.60;34.10
80216;DHT22;69532;37.974;23.708;2023-04-24T06:28:04;24.60;34.10
80216;DHT22;69532;37.974;23.708;2023-04-24T06:30:30;24.70;33.90
80216;DHT22;69532;37.974;23.708;2023-04-24T06:32:56;24.70;33.80
80216;DHT22;69532;37.974;23.708;2023-04-24T06:35:22;24.70;33.70
80216;DHT22;69532;37.974;23.708;2023-04-24T06:37:47;24.80;33.70
80216;DHT22;69532;37.974;23.708;2023-04-24T06:40:13;24.80;33.50
80216;DHT22;69532;37.974;23.708;2023-04-24T06:42:39;24.90;33.50
80216;DHT22;69532;37.974;23.708;2023-04-24T06:45:05;24.90;33.40
80216;DHT22;69532;37.974;23.708;2023-04-24T06:47:31;24.90;33.40
80216;DHT22;69532;37.974;23.708;2023-04-24T06:49:58;24.90;33.30
80216;DHT22;69532;37.974;23.708;2023-04-24T06:52:24;24.90;33.20
80216;DHT22;69532;37.974;23.708;2023-04-24T06:54:50;25.00;33.20
80216;DHT22;69532;37.974;23.708;2023-04-24T06:57:16;25.00;33.10
80216;DHT22;69532;37.974;23.708;2023-04-24T06:59:42;25.00;33.20
80216;DHT22;69532;37.974;23.708;2023-04-24T07:02:07;25.00;33.10
80216;DHT22;69532;37.974;23.708;2023-04-24T07:04:33;25.10;33.10
80216;DHT22;69532;37.974;23.708;2023-04-24T07:06:59;25.00;33.10
80216;DHT22;69532;37.974;23.708;2023-04-24T07:09:25;25.10;33.10
80216;DHT22;69532;37.974;23.708;2023-04-24T07:11:52;25.20;33.00
80216;DHT22;69532;37.974;23.708;2023-04-24T07:14:19;25.10;33.70
80216;DHT22;69532;37.974;23.708;2023-04-24T07:16:45;25.20;32.90
80216;DHT22;69532;37.974;23.708;2023-04-24T07:19:12;25.20;32.90
80216;DHT22;69532;37.974;23.708;2023-04-24T07:21:40;25.20;32.90
80216;DHT22;69532;37.974;23.708;2023-04-24T07:24:10;25.20;33.10
80216;DHT22;69532;37.974;23.708;2023-04-24T07:26:37;25.20;33.00
80216;DHT22;69532;37.974;23.708;2023-04-24T07:29:03;25.20;33.10
80216;DHT22;69532;37.974;23.708;2023-04-24T07:31:32;25.30;33.00
80216;DHT22;69532;37.974;23.708;2023-04-24T07:33:59;25.30;33.00
80216;DHT22;69532;37.974;23.708;2023-04-24T07:36:24;25.30;34.10
80216;DHT22;69532;37.974;23.708;2023-04-24T07:38:51;25.20;33.00
80216;DHT22;69532;37.974;23.708;2023-04-24T07:41:20;25.20;33.00
80216;DHT22;69532;37.974;23.708;2023-04-24T07:43:46;25.30;32.90
80216;DHT22;69532;37.974;23.708;2023-04-24T07:46:12;25.30;32.80
80216;DHT22;69532;37.974;23.708;2023-04-24T07:48:38;25.30;32.80
80216;DHT22;69532;37.974;23.708;2023-04-24T07:51:04;25.30;32.60
80216;DHT22;69532;37.974;23.708;2023-04-24T07:53:33;25.40;32.80
80216;DHT22;69532;37.974;23.708;2023-04-24T07:55:59;25.30;32.90
80216;DHT22;69532;37.974;23.708;2023-04-24T07:58:24;25.30;33.10
80216;DHT22;69532;37.974;23.708;2023-04-24T08:00:56;25.30;33.30
80216;DHT22;69532;37.974;23.708;2023-04-24T08:03:22;25.30;33.30
80216;DHT22;69532;37.974;23.708;2023-04-24T08:05:48;25.30;33.40
80216;DHT22;69532;37.974;23.708;2023-04-24T08:08:13;25.30;33.50
80216;DHT22;69532;37.974;23.708;2023-04-24T08:10:39;25.30;33.50
80216;DHT22;69532;37.974;23.708;2023-04-24T08:13:05;25.30;33.60
80216;DHT22;69532;37.974;23.708;2023-04-24T08:15:31;25.30;33.70
80216;DHT22;69532;37.974;23.708;2023-04-24T08:17:57;25.30;33.80
80216;DHT22;69532;37.974;23.708;2023-04-24T08:20:23;25.30;33.80
80216;DHT22;69532;37.974;23.708;2023-04-24T08:22:48;25.20;33.80
80216;DHT22;69532;37.974;23.708;2023-04-24T08:25:14;25.20;33.90
80216;DHT22;69532;37.974;23.708;2023-04-24T08:27:40;25.20;33.90
80216;DHT22;69532;37.974;23.708;2023-04-24T08:30:07;25.20;34.30
80216;DHT22;69532;37.974;23.708;2023-04-24T08:32:51;25.30;34.50
80216;DHT22;69532;37.974;23.708;2023-04-24T08:35:16;25.30;34.50
80216;DHT22;69532;37.974;23.708;2023-04-24T08:37:43;25.30;34.70
80216;DHT22;69532;37.974;23.708;2023-04-24T08:40:15;25.30;35.10
80216;DHT22;69532;37.974;23.708;2023-04-24T08:42:44;25.40;34.70
80216;DHT22;69532;37.974;23.708;2023-04-24T08:45:13;25.50;34.90
80216;DHT22;69532;37.974;23.708;2023-04-24T08:47:40;25.50;35.80
80216;DHT22;69532;37.974;23.708;2023-04-24T08:50:07;25.50;35.00
80216;DHT22;69532;37.974;23.708;2023-04-24T08:52:34;25.50;34.90
80216;DHT22;69532;37.974;23.708;2023-04-24T08:55:03;25.50;34.70
80216;DHT22;69532;37.974;23.708;2023-04-24T08:57:29;25.60;35.70
80216;DHT22;69532;37.974;23.708;2023-04-24T08:59:57;25.60;35.60
80216;DHT22;69532;37.974;23.708;2023-04-24T09:02:23;25.60;34.50
80216;DHT22;69532;37.974;23.708;2023-04-24T09:04:50;25.60;34.50
80216;DHT22;69532;37.974;23.708;2023-04-24T09:07:17;25.60;34.30
80216;DHT22;69532;37.974;23.708;2023-04-24T09:09:45;25.50;34.10
80216;DHT22;69532;37.974;23.708;2023-04-24T09:12:11;25.50;34.20
80216;DHT22;69532;37.974;23.708;2023-04-24T09:14:38;25.60;34.10
80216;DHT22;69532;37.974;23.708;2023-04-24T09:17:07;25.60;34.10
80216;DHT22;69532;37.974;23.708;2023-04-24T09:19:33;25.50;34.10
80216;DHT22;69532;37.974;23.708;2023-04-24T09:21:59;25.50;34.10
80216;DHT22;69532;37.974;23.708;2023-04-24T09:24:28;25.50;34.20
80216;DHT22;69532;37.974;23.708;2023-04-24T09:26:58;25.50;34.10
80216;DHT22;69532;37.974;23.708;2023-04-24T09:29:24;25.50;34.10
80216;DHT22;69532;37.974;23.708;2023-04-24T09:31:50;25.50;34.10
80216;DHT22;69532;37.974;23.708;2023-04-24T09:34:22;25.50;34.30
80216;DHT22;69532;37.974;23.708;2023-04-24T09:36:49;25.50;34.40
80216;DHT22;69532;37.974;23.708;2023-04-24T09:39:16;25.50;34.40
80216;DHT22;69532;37.974;23.708;2023-04-24T09:42:14;25.50;34.60
80216;DHT22;69532;37.974;23.708;2023-04-24T09:44:39;25.50;34.60
80216;DHT22;69532;37.974;23.708;2023-04-24T09:47:09;25.50;34.80
80216;DHT22;69532;37.974;23.708;2023-04-24T09:49:35;25.50;34.80
80216;DHT22;69532;37.974;23.708;2023-04-24T09:52:10;25.50;34.90
80216;DHT22;69532;37.974;23.708;2023-04-24T09:54:37;25.50;34.90
80216;DHT22;69532;37.974;23.708;2023-04-24T09:57:03;25.50;34.90
80216;DHT22;69532;37.974;23.708;2023-04-24T09:59:29;25.60;34.90
80216;DHT22;69532;37.974;23.708;2023-04-24T10:01:55;25.60;35.00
80216;DHT22;69532;37.974;23.708;2023-04-24T10:04:23;25.60;34.90
80216;DHT22;69532;37.974;23.708;2023-04-24T10:06:55;25.60;35.00
80216;DHT22;69532;37.974;23.708;2023-04-24T10:09:26;25.60;34.90
80216;DHT22;69532;37.974;23.708;2023-04-24T10:11:54;25.60;34.90
80216;DHT22;69532;37.974;23.708;2023-04-24T10:14:24;25.60;34.90
80216;DHT22;69532;37.974;23.708;2023-04-24T10:16:53;25.60;35.00
80216;DHT22;69532;37.974;23.708;2023-04-24T10:19:19;25.60;35.00
80216;DHT22;69532;37.974;23.708;2023-04-24T10:21:48;25.60;35.00
80216;DHT22;69532;37.974;23.708;2023-04-24T10:24:16;25.50;35.00
80216;DHT22;69532;37.974;23.708;2023-04-24T10:26:43;25.60;35.20
80216;DHT22;69532;37.974;23.708;2023-04-24T10:29:16;25.60;35.20
80216;DHT22;69532;37.974;23.708;2023-04-24T10:31:44;25.50;35.30
80216;DHT22;69532;37.974;23.708;2023-04-24T10:34:15;25.50;35.30
80216;DHT22;69532;37.974;23.708;2023-04-24T10:36:51;25.50;35.40
80216;DHT22;69532;37.974;23.708;2023-04-24T10:39:18;25.50;35.40
80216;DHT22;69532;37.974;23.708;2023-04-24T10:41:45;25.50;35.50
80216;DHT22;69532;37.974;23.708;2023-04-24T10:44:15;25.50;35.60
80216;DHT22;69532;37.974;23.708;2023-04-24T10:46:46;25.50;35.60
80216;DHT22;69532;37.974;23.708;2023-04-24T10:49:15;25.40;35.50
80216;DHT22;69532;37.974;23.708;2023-04-24T10:51:48;25.50;35.60
80216;DHT22;69532;37.974;23.708;2023-04-24T10:56:50;25.40;35.60
80216;DHT22;69532;37.974;23.708;2023-04-24T10:59:36;25.40;35.70
80216;DHT22;69532;37.974;23.708;2023-04-24T11:02:06;25.40;35.80
80216;DHT22;69532;37.974;23.708;2023-04-24T11:04:33;25.40;35.80
80216;DHT22;69532;37.974;23.708;2023-04-24T11:07:00;25.40;35.80
80216;DHT22;69532;37.974;23.708;2023-04-24T11:09:28;25.40;35.90
80216;DHT22;69532;37.974;23.708;2023-04-24T11:12:10;25.40;35.90
80216;DHT22;69532;37.974;23.708;2023-04-24T11:17:38;25.40;35.80
80216;DHT22;69532;37.974;23.708;2023-04-24T11:20:10;25.40;35.80
80216;DHT22;69532;37.974;23.708;2023-04-24T11:22:39;25.40;35.80
80216;DHT22;69532;37.974;23.708;2023-04-24T11:25:09;25.40;35.60
80216;DHT22;69532;37.974;23.708;2023-04-24T11:27:41;25.40;35.70
80216;DHT22;69532;37.974;23.708;2023-04-24T11:30:08;25.40;35.60
80216;DHT22;69532;37.974;23.708;2023-04-24T11:32:39;25.40;35.60
80216;DHT22;69532;37.974;23.708;2023-04-24T11:35:19;25.40;35.40
80216;DHT22;69532;37.974;23.708;2023-04-24T11:37:51;25.40;35.10
80216;DHT22;69532;37.974;23.708;2023-04-24T11:40:19;25.40;35.20
80216;DHT22;69532;37.974;23.708;2023-04-24T11:42:50;25.40;35.20
80216;DHT22;69532;37.974;23.708;2023-04-24T11:45:18;25.40;35.20
80216;DHT22;69532;37.974;23.708;2023-04-24T11:47:45;25.30;35.20
80216;DHT22;69532;37.974;23.708;2023-04-24T11:50:15;25.30;35.30
80216;DHT22;69532;37.974;23.708;2023-04-24T11:52:46;25.30;35.40
80216;DHT22;69532;37.974;23.708;2023-04-24T11:57:51;25.30;35.60
80216;DHT22;69532;37.974;23.708;2023-04-24T12:02:48;25.30;35.70
80216;DHT22;69532;37.974;23.708;2023-04-24T12:05:27;25.30;35.80
80216;DHT22;69532;37.974;23.708;2023-04-24T12:07:54;25.30;35.80
80216;DHT22;69532;37.974;23.708;2023-04-24T12:10:28;25.30;36.00
80216;DHT22;69532;37.974;23.708;2023-04-24T12:12:55;25.30;36.10
80216;DHT22;69532;37.974;23.708;2023-04-24T12:15:22;25.30;36.10
80216;DHT22;69532;37.974;23.708;2023-04-24T12:17:53;25.30;36.10
80216;DHT22;69532;37.974;23.708;2023-04-24T12:20:28;25.30;36.20
80216;DHT22;69532;37.974;23.708;2023-04-24T12:22:55;25.30;36.20
80216;DHT22;69532;37.974;23.708;2023-04-24T12:25:26;25.30;36.40
80216;DHT22;69532;37.974;23.708;2023-04-24T12:30:28;25.30;36.20
80216;DHT22;69532;37.974;23.708;2023-04-24T12:32:56;25.30;35.90
80216;DHT22;69532;37.974;23.708;2023-04-24T12:35:23;25.30;35.90
80216;DHT22;69532;37.974;23.708;2023-04-24T12:37:50;25.30;35.70
80216;DHT22;69532;37.974;23.708;2023-04-24T12:40:18;25.30;35.50
80216;DHT22;69532;37.974;23.708;2023-04-24T12:42:48;25.30;35.70
80216;DHT22;69532;37.974;23.708;2023-04-24T12:45:18;25.30;35.50
80216;DHT22;69532;37.974;23.708;2023-04-24T12:47:45;25.30;35.50
80216;DHT22;69532;37.974;23.708;2023-04-24T12:50:14;25.30;35.60
80216;DHT22;69532;37.974;23.708;2023-04-24T12:52:40;25.30;35.70
80216;DHT22;69532;37.974;23.708;2023-04-24T12:55:06;25.30;35.60
80216;DHT22;69532;37.974;23.708;2023-04-24T12:57:37;25.20;35.70
80216;DHT22;69532;37.974;23.708;2023-04-24T13:00:03;25.20;35.60
80216;DHT22;69532;37.974;23.708;2023-04-24T13:02:30;25.20;35.30
80216;DHT22;69532;37.974;23.708;2023-04-24T13:04:57;25.20;35.20
80216;DHT22;69532;37.974;23.708;2023-04-24T13:07:23;25.20;35.00
80216;DHT22;69532;37.974;23.708;2023-04-24T13:09:51;25.20;34.80
80216;DHT22;69532;37.974;23.708;2023-04-24T13:12:17;25.20;34.80
80216;DHT22;69532;37.974;23.708;2023-04-24T13:14:43;25.20;34.50
80216;DHT22;69532;37.974;23.708;2023-04-24T13:17:09;25.10;34.00
80216;DHT22;69532;37.974;23.708;2023-04-24T13:19:37;25.10;34.10
80216;DHT22;69532;37.974;23.708;2023-04-24T13:22:03;25.20;34.20
80216;DHT22;69532;37.974;23.708;2023-04-24T13:24:29;25.10;34.10
80216;DHT22;69532;37.974;23.708;2023-04-24T13:26:57;25.10;34.40
80216;DHT22;69532;37.974;23.708;2023-04-24T13:29:23;25.10;34.50
80216;DHT22;69532;37.974;23.708;2023-04-24T13:31:53;25.10;34.60
80216;DHT22;69532;37.974;23.708;2023-04-24T13:34:23;25.10;34.50
80216;DHT22;69532;37.974;23.708;2023-04-24T13:36:54;25.10;34.60
80216;DHT22;69532;37.974;23.708;2023-04-24T13:39:20;25.10;34.60
80216;DHT22;69532;37.974;23.708;2023-04-24T13:41:46;25.10;34.60
80216;DHT22;69532;37.974;23.708;2023-04-24T13:44:16;25.00;34.70
80216;DHT22;69532;37.974;23.708;2023-04-24T13:46:44;25.00;34.80
80216;DHT22;69532;37.974;23.708;2023-04-24T13:49:11;25.00;34.90
80216;DHT22;69532;37.974;23.708;2023-04-24T13:51:37;25.00;34.90
80216;DHT22;69532;37.974;23.708;2023-04-24T13:54:03;25.00;35.00
80216;DHT22;69532;37.974;23.708;2023-04-24T13:56:29;25.00;35.20
80216;DHT22;69532;37.974;23.708;2023-04-24T13:58:55;25.00;35.40
80216;DHT22;69532;37.974;23.708;2023-04-24T14:01:21;24.90;35.50
80216;DHT22;69532;37.974;23.708;2023-04-24T14:03:51;24.90;35.70
80216;DHT22;69532;37.974;23.708;2023-04-24T14:06:18;24.80;35.70
80216;DHT22;69532;37.974;23.708;2023-04-24T14:08:44;24.80;35.80
80216;DHT22;69532;37.974;23.708;2023-04-24T14:11:09;24.80;35.90
80216;DHT22;69532;37.974;23.708;2023-04-24T14:13:36;24.80;36.00
80216;DHT22;69532;37.974;23.708;2023-04-24T14:16:03;24.80;36.10
80216;DHT22;69532;37.974;23.708;2023-04-24T14:18:29;24.90;36.20
80216;DHT22;69532;37.974;23.708;2023-04-24T14:20:55;24.80;36.20
80216;DHT22;69532;37.974;23.708;2023-04-24T14:23:21;24.80;36.20
80216;DHT22;69532;37.974;23.708;2023-04-24T14:25:47;24.80;36.30
80216;DHT22;69532;37.974;23.708;2023-04-24T14:28:17;24.80;36.20
80216;DHT22;69532;37.974;23.708;2023-04-24T14:30:43;24.80;36.10
80216;DHT22;69532;37.974;23.708;2023-04-24T14:33:09;24.70;36.00
80216;DHT22;69532;37.974;23.708;2023-04-24T14:35:35;24.70;35.80
80216;DHT22;69532;37.974;23.708;2023-04-24T14:38:01;24.80;35.60
80216;DHT22;69532;37.974;23.708;2023-04-24T14:40:28;24.70;35.40
80216;DHT22;69532;37.974;23.708;2023-04-24T14:42:53;24.70;35.50
80216;DHT22;69532;37.974;23.708;2023-04-24T14:45:19;24.70;35.40
80216;DHT22;69532;37.974;23.708;2023-04-24T14:47:45;24.70;35.50
80216;DHT22;69532;37.974;23.708;2023-04-24T14:50:11;24.70;35.50
80216;DHT22;69532;37.974;23.708;2023-04-24T14:52:38;24.70;35.70
80216;DHT22;69532;37.974;23.708;2023-04-24T14:55:04;24.70;36.00
80216;DHT22;69532;37.974;23.708;2023-04-24T14:57:32;24.70;37.00
80216;DHT22;69532;37.974;23.708;2023-04-24T14:59:58;24.70;36.70
80216;DHT22;69532;37.974;23.708;2023-04-24T15:02:24;24.60;36.80
80216;DHT22;69532;37.974;23.708;2023-04-24T15:04:49;24.70;36.90
80216;DHT22;69532;37.974;23.708;2023-04-24T15:07:15;24.70;36.70
80216;DHT22;69532;37.974;23.708;2023-04-24T15:09:41;24.70;36.50
80216;DHT22;69532;37.974;23.708;2023-04-24T15:12:08;24.60;36.10
80216;DHT22;69532;37.974;23.708;2023-04-24T15:14:34;24.60;35.70
80216;DHT22;69532;37.974;23.708;2023-04-24T15:16:59;24.60;35.80
80216;DHT22;69532;37.974;23.708;2023-04-24T15:19:25;24.60;35.20
80216;DHT22;69532;37.974;23.708;2023-04-24T15:21:51;24.60;35.30
80216;DHT22;69532;37.974;23.708;2023-04-24T15:24:17;24.60;35.30
80216;DHT22;69532;37.974;23.708;2023-04-24T15:26:42;24.60;35.30